sensor_id;sensor_type;location;lat;lon;timestamp;P1;durP1;ratioP1;P2;durP2;ratioP2
66437;SDS011;54537;47.972;11.662;2023-02-03T00:02:11;4.13;;;1.40;;
66437;SDS011;54537;47.972;11.662;2023-02-03T00:04:38;3.30;;;1.48;;
66437;SDS011;54537;47.972;11.662;2023-02-03T00:07:04;4.32;;;1.67;;
66437;SDS011;54537;47.972;11.662;2023-02-03T00:09:32;3.35;;;1.40;;
66437;SDS011;54537;47.972;11.662;2023-02-03T00:11:59;4.45;;;1.50;;
66437;SDS011;54537;47.972;11.662;2023-02-03T00:14:25;6.72;;;1.60;;
66437;SDS011;54537;47.972;11.662;2023-02-03T00:16:51;3.50;;;1.60;;
66437;SDS011;54537;47.972;11.662;2023-02-03T00:19:18;2.85;;;1.42;;
66437;SDS011;54537;47.972;11.662;2023-02-03T00:21:44;4.22;;;1.70;;
66437;SDS011;54537;47.972;11.662;2023-02-03T00:24:11;5.97;;;1.58;;
66437;SDS011;54537;47.972;11.662;2023-02-03T00:26:41;3.10;;;1.63;;
66437;SDS011;54537;47.972;11.662;2023-02-03T00:29:07;6.45;;;1.55;;
66437;SDS011;54537;47.972;11.662;2023-02-03T00:31:34;2.63;;;1.10;;
66437;SDS011;54537;47.972;11.662;2023-02-03T00:34:00;3.47;;;1.58;;
66437;SDS011;54537;47.972;11.662;2023-02-03T00:36:27;3.40;;;1.40;;
66437;SDS011;54537;47.972;11.662;2023-02-03T00:38:53;4.85;;;1.75;;
66437;SDS011;54537;47.972;11.662;2023-02-03T00:41:20;5.97;;;1.40;;
66437;SDS011;54537;47.972;11.662;2023-02-03T00:43:48;5.22;;;2.72;;
66437;SDS011;54537;47.972;11.662;2023-02-03T00:46:15;6.05;;;1.50;;
66437;SDS011;54537;47.972;11.662;2023-02-03T00:48:41;3.63;;;1.65;;
66437;SDS011;54537;47.972;11.662;2023-02-03T00:51:08;5.30;;;1.70;;
66437;SDS011;54537;47.972;11.662;2023-02-03T00:53:34;4.95;;;1.50;;
66437;SDS011;54537;47.972;11.662;2023-02-03T00:56:01;5.38;;;1.60;;
66437;SDS011;54537;47.972;11.662;2023-02-03T00:58:27;4.60;;;1.92;;
66437;SDS011;54537;47.972;11.662;2023-02-03T01:00:55;6.35;;;1.75;;
66437;SDS011;54537;47.972;11.662;2023-02-03T01:03:21;2.65;;;1.13;;
66437;SDS011;54537;47.972;11.662;2023-02-03T01:05:48;2.50;;;1.17;;
66437;SDS011;54537;47.972;11.662;2023-02-03T01:08:14;4.65;;;1.45;;
66437;SDS011;54537;47.972;11.662;2023-02-03T01:10:41;5.10;;;1.50;;
66437;SDS011;54537;47.972;11.662;2023-02-03T01:13:07;4.43;;;1.42;;
66437;SDS011;54537;47.972;11.662;2023-02-03T01:15:34;5.00;;;1.38;;
66437;SDS011;54537;47.972;11.662;2023-02-03T01:18:02;3.50;;;1.60;;
66437;SDS011;54537;47.972;11.662;2023-02-03T01:20:28;3.38;;;1.45;;
66437;SDS011;54537;47.972;11.662;2023-02-03T01:22:55;5.20;;;1.40;;
66437;SDS011;54537;47.972;11.662;2023-02-03T01:25:22;3.58;;;1.40;;
66437;SDS011;54537;47.972;11.662;2023-02-03T01:27:48;6.88;;;1.02;;
66437;SDS011;54537;47.972;11.662;2023-02-03T01:30:15;3.95;;;1.50;;
66437;SDS011;54537;47.972;11.662;2023-02-03T01:32:42;4.28;;;1.40;;
66437;SDS011;54537;47.972;11.662;2023-02-03T01:35:10;3.63;;;1.50;;
66437;SDS011;54537;47.972;11.662;2023-02-03T01:37:36;4.13;;;1.30;;
66437;SDS011;54537;47.972;11.662;2023-02-03T01:40:03;3.58;;;1.42;;
66437;SDS011;54537;47.972;11.662;2023-02-03T01:42:31;6.43;;;1.50;;
66437;SDS011;54537;47.972;11.662;2023-02-03T01:44:58;3.03;;;1.40;;
66437;SDS011;54537;47.972;11.662;2023-02-03T01:47:27;3.67;;;1.50;;
66437;SDS011;54537;47.972;11.662;2023-02-03T01:49:56;3.35;;;1.40;;
66437;SDS011;54537;47.972;11.662;2023-02-03T01:52:27;2.83;;;1.20;;
66437;SDS011;54537;47.972;11.662;2023-02-03T01:54:56;3.63;;;1.30;;
66437;SDS011;54537;47.972;11.662;2023-02-03T01:57:25;4.68;;;1.85;;
66437;SDS011;54537;47.972;11.662;2023-02-03T01:59:54;3.30;;;1.38;;
66437;SDS011;54537;47.972;11.662;2023-02-03T02:02:23;3.38;;;1.17;;
66437;SDS011;54537;47.972;11.662;2023-02-03T02:04:51;5.30;;;1.23;;
66437;SDS011;54537;47.972;11.662;2023-02-03T02:07:21;4.03;;;1.25;;
66437;SDS011;54537;47.972;11.662;2023-02-03T02:09:50;3.45;;;1.33;;
66437;SDS011;54537;47.972;11.662;2023-02-03T02:12:16;3.20;;;1.48;;
66437;SDS011;54537;47.972;11.662;2023-02-03T02:14:43;3.63;;;1.13;;
66437;SDS011;54537;47.972;11.662;2023-02-03T02:17:11;2.72;;;1.13;;
66437;SDS011;54537;47.972;11.662;2023-02-03T02:19:52;2.25;;;1.20;;
66437;SDS011;54537;47.972;11.662;2023-02-03T02:22:31;4.35;;;1.10;;
66437;SDS011;54537;47.972;11.662;2023-02-03T02:25:16;2.33;;;0.90;;
66437;SDS011;54537;47.972;11.662;2023-02-03T02:28:08;2.85;;;1.13;;
66437;SDS011;54537;47.972;11.662;2023-02-03T02:31:01;2.42;;;1.10;;
66437;SDS011;54537;47.972;11.662;2023-02-03T02:33:39;2.72;;;1.13;;
66437;SDS011;54537;47.972;11.662;2023-02-03T02:36:09;6.68;;;1.30;;
66437;SDS011;54537;47.972;11.662;2023-02-03T02:38:45;1.90;;;1.08;;
66437;SDS011;54537;47.972;11.662;2023-02-03T02:41:16;4.00;;;1.00;;
66437;SDS011;54537;47.972;11.662;2023-02-03T02:43:48;1.85;;;1.05;;
66437;SDS011;54537;47.972;11.662;2023-02-03T02:46:22;3.45;;;0.90;;
66437;SDS011;54537;47.972;11.662;2023-02-03T02:48:54;2.53;;;1.23;;
66437;SDS011;54537;47.972;11.662;2023-02-03T02:51:24;1.45;;;0.90;;
66437;SDS011;54537;47.972;11.662;2023-02-03T02:53:52;3.55;;;1.10;;
66437;SDS011;54537;47.972;11.662;2023-02-03T02:56:20;1.15;;;0.80;;
66437;SDS011;54537;47.972;11.662;2023-02-03T02:58:47;2.00;;;1.13;;
66437;SDS011;54537;47.972;11.662;2023-02-03T03:01:14;2.10;;;1.10;;
66437;SDS011;54537;47.972;11.662;2023-02-03T03:03:41;5.70;;;1.30;;
66437;SDS011;54537;47.972;11.662;2023-02-03T03:06:11;7.13;;;1.40;;
66437;SDS011;54537;47.972;11.662;2023-02-03T03:08:41;2.67;;;1.65;;
66437;SDS011;54537;47.972;11.662;2023-02-03T03:11:11;2.25;;;1.17;;
66437;SDS011;54537;47.972;11.662;2023-02-03T03:13:39;4.18;;;1.13;;
66437;SDS011;54537;47.972;11.662;2023-02-03T03:16:07;2.78;;;1.17;;
66437;SDS011;54537;47.972;11.662;2023-02-03T03:18:35;2.90;;;1.00;;
66437;SDS011;54537;47.972;11.662;2023-02-03T03:21:07;3.85;;;1.27;;
66437;SDS011;54537;47.972;11.662;2023-02-03T03:23:35;3.50;;;1.00;;
66437;SDS011;54537;47.972;11.662;2023-02-03T03:26:07;3.72;;;1.08;;
66437;SDS011;54537;47.972;11.662;2023-02-03T03:28:39;2.03;;;1.13;;
66437;SDS011;54537;47.972;11.662;2023-02-03T03:31:08;1.88;;;1.05;;
66437;SDS011;54537;47.972;11.662;2023-02-03T03:33:34;6.60;;;1.17;;
66437;SDS011;54537;47.972;11.662;2023-02-03T03:36:02;1.77;;;0.90;;
66437;SDS011;54537;47.972;11.662;2023-02-03T03:38:35;1.13;;;0.77;;
66437;SDS011;54537;47.972;11.662;2023-02-03T03:41:04;3.42;;;0.90;;
66437;SDS011;54537;47.972;11.662;2023-02-03T03:43:34;2.30;;;0.73;;
66437;SDS011;54537;47.972;11.662;2023-02-03T03:46:05;4.38;;;1.13;;
66437;SDS011;54537;47.972;11.662;2023-02-03T03:48:35;2.20;;;1.08;;
66437;SDS011;54537;47.972;11.662;2023-02-03T03:51:06;1.13;;;0.82;;
66437;SDS011;54537;47.972;11.662;2023-02-03T03:53:35;1.83;;;1.00;;
66437;SDS011;54537;47.972;11.662;2023-02-03T03:56:06;2.65;;;0.70;;
66437;SDS011;54537;47.972;11.662;2023-02-03T03:58:38;3.63;;;0.80;;
66437;SDS011;54537;47.972;11.662;2023-02-03T04:01:10;3.25;;;0.80;;
66437;SDS011;54537;47.972;11.662;2023-02-03T04:03:38;1.45;;;0.93;;
66437;SDS011;54537;47.972;11.662;2023-02-03T04:06:05;1.92;;;0.70;;
66437;SDS011;54537;47.972;11.662;2023-02-03T04:08:32;1.88;;;0.90;;
66437;SDS011;54537;47.972;11.662;2023-02-03T04:11:00;5.05;;;1.30;;
66437;SDS011;54537;47.972;11.662;2023-02-03T04:13:26;1.30;;;0.88;;
66437;SDS011;54537;47.972;11.662;2023-02-03T04:15:53;2.20;;;0.68;;
66437;SDS011;54537;47.972;11.662;2023-02-03T04:18:19;1.27;;;0.70;;
66437;SDS011;54537;47.972;11.662;2023-02-03T04:20:46;3.05;;;0.85;;
66437;SDS011;54537;47.972;11.662;2023-02-03T04:23:12;4.40;;;1.38;;
66437;SDS011;54537;47.972;11.662;2023-02-03T04:25:39;2.80;;;0.93;;
66437;SDS011;54537;47.972;11.662;2023-02-03T04:28:06;2.95;;;1.23;;
66437;SDS011;54537;47.972;11.662;2023-02-03T04:30:33;1.92;;;0.90;;
66437;SDS011;54537;47.972;11.662;2023-02-03T04:32:59;2.97;;;1.00;;
66437;SDS011;54537;47.972;11.662;2023-02-03T04:35:26;4.35;;;1.00;;
66437;SDS011;54537;47.972;11.662;2023-02-03T04:37:52;1.23;;;0.85;;
66437;SDS011;54537;47.972;11.662;2023-02-03T04:40:19;6.05;;;1.42;;
66437;SDS011;54537;47.972;11.662;2023-02-03T04:42:46;2.30;;;0.85;;
66437;SDS011;54537;47.972;11.662;2023-02-03T04:45:13;1.83;;;0.93;;
66437;SDS011;54537;47.972;11.662;2023-02-03T04:47:40;6.13;;;1.30;;
66437;SDS011;54537;47.972;11.662;2023-02-03T04:50:07;6.15;;;1.30;;
66437;SDS011;54537;47.972;11.662;2023-02-03T04:52:34;5.88;;;1.20;;
66437;SDS011;54537;47.972;11.662;2023-02-03T04:55:00;2.13;;;1.13;;
66437;SDS011;54537;47.972;11.662;2023-02-03T04:57:28;2.00;;;0.95;;
66437;SDS011;54537;47.972;11.662;2023-02-03T04:59:54;4.20;;;0.90;;
66437;SDS011;54537;47.972;11.662;2023-02-03T05:02:22;2.92;;;0.98;;
66437;SDS011;54537;47.972;11.662;2023-02-03T05:04:48;2.33;;;0.90;;
66437;SDS011;54537;47.972;11.662;2023-02-03T05:07:15;2.78;;;1.02;;
66437;SDS011;54537;47.972;11.662;2023-02-03T05:09:41;2.85;;;1.02;;
66437;SDS011;54537;47.972;11.662;2023-02-03T05:12:08;4.45;;;1.17;;
66437;SDS011;54537;47.972;11.662;2023-02-03T05:14:34;2.42;;;1.27;;
66437;SDS011;54537;47.972;11.662;2023-02-03T05:17:00;2.03;;;0.90;;
66437;SDS011;54537;47.972;11.662;2023-02-03T05:19:28;2.15;;;0.90;;
66437;SDS011;54537;47.972;11.662;2023-02-03T05:21:55;4.13;;;1.25;;
66437;SDS011;54537;47.972;11.662;2023-02-03T05:24:21;1.77;;;1.02;;
66437;SDS011;54537;47.972;11.662;2023-02-03T05:26:48;2.22;;;1.10;;
66437;SDS011;54537;47.972;11.662;2023-02-03T05:29:14;1.73;;;1.02;;
66437;SDS011;54537;47.972;11.662;2023-02-03T05:31:41;5.22;;;1.33;;
66437;SDS011;54537;47.972;11.662;2023-02-03T05:34:07;1.92;;;0.90;;
66437;SDS011;54537;47.972;11.662;2023-02-03T05:36:35;2.03;;;0.95;;
66437;SDS011;54537;47.972;11.662;2023-02-03T05:39:01;2.80;;;1.00;;
66437;SDS011;54537;47.972;11.662;2023-02-03T05:41:28;3.30;;;0.98;;
66437;SDS011;54537;47.972;11.662;2023-02-03T05:44:12;1.42;;;0.90;;
66437;SDS011;54537;47.972;11.662;2023-02-03T05:46:39;3.50;;;1.25;;
66437;SDS011;54537;47.972;11.662;2023-02-03T05:49:05;1.48;;;0.95;;
66437;SDS011;54537;47.972;11.662;2023-02-03T05:51:32;3.05;;;1.00;;
66437;SDS011;54537;47.972;11.662;2023-02-03T05:53:59;2.83;;;1.00;;
66437;SDS011;54537;47.972;11.662;2023-02-03T05:56:26;1.85;;;0.90;;
66437;SDS011;54537;47.972;11.662;2023-02-03T05:58:52;2.65;;;1.38;;
66437;SDS011;54537;47.972;11.662;2023-02-03T06:01:19;3.75;;;0.90;;
66437;SDS011;54537;47.972;11.662;2023-02-03T06:03:45;1.80;;;0.90;;
66437;SDS011;54537;47.972;11.662;2023-02-03T06:06:12;2.17;;;1.00;;
66437;SDS011;54537;47.972;11.662;2023-02-03T06:08:39;2.50;;;1.23;;
66437;SDS011;54537;47.972;11.662;2023-02-03T06:11:06;2.92;;;1.17;;
66437;SDS011;54537;47.972;11.662;2023-02-03T06:13:33;1.50;;;1.13;;
66437;SDS011;54537;47.972;11.662;2023-02-03T06:15:59;1.55;;;1.02;;
66437;SDS011;54537;47.972;11.662;2023-02-03T06:18:26;2.97;;;1.20;;
66437;SDS011;54537;47.972;11.662;2023-02-03T06:20:52;2.20;;;0.80;;
66437;SDS011;54537;47.972;11.662;2023-02-03T06:23:19;5.13;;;1.50;;
66437;SDS011;54537;47.972;11.662;2023-02-03T06:25:46;3.80;;;1.33;;
66437;SDS011;54537;47.972;11.662;2023-02-03T06:28:15;5.47;;;1.30;;
66437;SDS011;54537;47.972;11.662;2023-02-03T06:30:42;3.90;;;1.20;;
66437;SDS011;54537;47.972;11.662;2023-02-03T06:33:09;3.78;;;1.25;;
66437;SDS011;54537;47.972;11.662;2023-02-03T06:35:35;4.00;;;1.00;;
66437;SDS011;54537;47.972;11.662;2023-02-03T06:38:02;3.92;;;1.25;;
66437;SDS011;54537;47.972;11.662;2023-02-03T06:40:28;3.30;;;1.10;;
66437;SDS011;54537;47.972;11.662;2023-02-03T06:42:54;4.43;;;1.92;;
66437;SDS011;54537;47.972;11.662;2023-02-03T06:45:22;6.45;;;1.50;;
66437;SDS011;54537;47.972;11.662;2023-02-03T06:47:49;6.47;;;1.45;;
66437;SDS011;54537;47.972;11.662;2023-02-03T06:50:15;3.97;;;1.10;;
66437;SDS011;54537;47.972;11.662;2023-02-03T06:52:42;2.50;;;1.30;;
66437;SDS011;54537;47.972;11.662;2023-02-03T06:55:08;1.80;;;1.10;;
66437;SDS011;54537;47.972;11.662;2023-02-03T06:57:36;1.55;;;0.90;;
66437;SDS011;54537;47.972;11.662;2023-02-03T07:00:08;5.95;;;1.23;;
66437;SDS011;54537;47.972;11.662;2023-02-03T07:02:38;2.55;;;1.23;;
66437;SDS011;54537;47.972;11.662;2023-02-03T07:05:05;2.97;;;1.10;;
66437;SDS011;54537;47.972;11.662;2023-02-03T07:07:32;5.93;;;1.40;;
66437;SDS011;54537;47.972;11.662;2023-02-03T07:09:58;6.50;;;1.40;;
66437;SDS011;54537;47.972;11.662;2023-02-03T07:12:25;7.50;;;1.50;;
66437;SDS011;54537;47.972;11.662;2023-02-03T07:14:52;3.92;;;1.25;;
66437;SDS011;54537;47.972;11.662;2023-02-03T07:17:18;4.65;;;1.13;;
66437;SDS011;54537;47.972;11.662;2023-02-03T07:19:46;1.52;;;1.10;;
66437;SDS011;54537;47.972;11.662;2023-02-03T07:22:13;2.47;;;1.30;;
66437;SDS011;54537;47.972;11.662;2023-02-03T07:24:39;1.65;;;1.00;;
66437;SDS011;54537;47.972;11.662;2023-02-03T07:27:06;3.80;;;1.02;;
66437;SDS011;54537;47.972;11.662;2023-02-03T07:29:32;7.07;;;1.13;;
66437;SDS011;54537;47.972;11.662;2023-02-03T07:31:58;3.28;;;1.23;;
66437;SDS011;54537;47.972;11.662;2023-02-03T07:34:26;5.15;;;1.05;;
66437;SDS011;54537;47.972;11.662;2023-02-03T07:36:54;5.10;;;1.48;;
66437;SDS011;54537;47.972;11.662;2023-02-03T07:39:21;5.00;;;1.30;;
66437;SDS011;54537;47.972;11.662;2023-02-03T07:41:47;1.83;;;1.17;;
66437;SDS011;54537;47.972;11.662;2023-02-03T07:44:14;2.20;;;1.17;;
66437;SDS011;54537;47.972;11.662;2023-02-03T07:46:40;3.67;;;1.10;;
66437;SDS011;54537;47.972;11.662;2023-02-03T07:49:09;3.70;;;1.17;;
66437;SDS011;54537;47.972;11.662;2023-02-03T07:51:35;4.05;;;1.15;;
66437;SDS011;54537;47.972;11.662;2023-02-03T07:54:03;6.60;;;1.35;;
66437;SDS011;54537;47.972;11.662;2023-02-03T07:56:30;4.05;;;1.30;;
66437;SDS011;54537;47.972;11.662;2023-02-03T07:58:57;2.85;;;1.05;;
66437;SDS011;54537;47.972;11.662;2023-02-03T08:01:23;3.22;;;1.17;;
66437;SDS011;54537;47.972;11.662;2023-02-03T08:03:50;1.85;;;1.02;;
66437;SDS011;54537;47.972;11.662;2023-02-03T08:06:16;4.78;;;1.10;;
66437;SDS011;54537;47.972;11.662;2023-02-03T08:08:43;2.28;;;0.95;;
66437;SDS011;54537;47.972;11.662;2023-02-03T08:11:11;1.23;;;0.93;;
66437;SDS011;54537;47.972;11.662;2023-02-03T08:13:37;4.28;;;1.33;;
66437;SDS011;54537;47.972;11.662;2023-02-03T08:16:04;2.35;;;1.23;;
66437;SDS011;54537;47.972;11.662;2023-02-03T08:18:31;1.52;;;1.02;;
66437;SDS011;54537;47.972;11.662;2023-02-03T08:20:58;2.20;;;1.00;;
66437;SDS011;54537;47.972;11.662;2023-02-03T08:23:24;2.30;;;1.10;;
66437;SDS011;54537;47.972;11.662;2023-02-03T08:25:51;4.13;;;1.30;;
66437;SDS011;54537;47.972;11.662;2023-02-03T08:28:19;3.03;;;1.13;;
66437;SDS011;54537;47.972;11.662;2023-02-03T08:30:45;3.05;;;1.10;;
66437;SDS011;54537;47.972;11.662;2023-02-03T08:33:12;4.68;;;1.42;;
66437;SDS011;54537;47.972;11.662;2023-02-03T08:35:38;4.30;;;1.30;;
66437;SDS011;54537;47.972;11.662;2023-02-03T08:38:05;4.63;;;1.13;;
66437;SDS011;54537;47.972;11.662;2023-02-03T08:40:32;3.30;;;1.00;;
66437;SDS011;54537;47.972;11.662;2023-02-03T08:42:58;2.97;;;1.05;;
66437;SDS011;54537;47.972;11.662;2023-02-03T08:45:26;3.13;;;1.38;;
66437;SDS011;54537;47.972;11.662;2023-02-03T08:47:52;2.72;;;0.90;;
66437;SDS011;54537;47.972;11.662;2023-02-03T08:50:19;3.30;;;0.70;;
66437;SDS011;54537;47.972;11.662;2023-02-03T08:52:45;2.55;;;1.30;;
66437;SDS011;54537;47.972;11.662;2023-02-03T08:55:12;2.78;;;0.80;;
66437;SDS011;54537;47.972;11.662;2023-02-03T08:57:39;2.88;;;0.93;;
66437;SDS011;54537;47.972;11.662;2023-02-03T09:00:06;3.42;;;1.08;;
66437;SDS011;54537;47.972;11.662;2023-02-03T09:02:35;3.85;;;1.35;;
66437;SDS011;54537;47.972;11.662;2023-02-03T09:05:02;3.38;;;1.23;;
66437;SDS011;54537;47.972;11.662;2023-02-03T09:07:28;2.92;;;1.02;;
66437;SDS011;54537;47.972;11.662;2023-02-03T09:09:55;3.72;;;1.13;;
66437;SDS011;54537;47.972;11.662;2023-02-03T09:12:21;3.28;;;1.00;;
66437;SDS011;54537;47.972;11.662;2023-02-03T09:14:48;2.15;;;0.80;;
66437;SDS011;54537;47.972;11.662;2023-02-03T09:17:14;3.22;;;1.00;;
66437;SDS011;54537;47.972;11.662;2023-02-03T09:19:42;2.28;;;1.00;;
66437;SDS011;54537;47.972;11.662;2023-02-03T09:22:09;1.90;;;1.20;;
66437;SDS011;54537;47.972;11.662;2023-02-03T09:24:35;1.23;;;0.93;;
66437;SDS011;54537;47.972;11.662;2023-02-03T09:27:02;2.78;;;0.93;;
66437;SDS011;54537;47.972;11.662;2023-02-03T09:29:28;1.65;;;0.75;;
66437;SDS011;54537;47.972;11.662;2023-02-03T09:31:55;1.38;;;0.90;;
66437;SDS011;54537;47.972;11.662;2023-02-03T09:34:21;2.08;;;0.80;;
66437;SDS011;54537;47.972;11.662;2023-02-03T09:36:49;1.50;;;0.85;;
66437;SDS011;54537;47.972;11.662;2023-02-03T09:39:16;3.78;;;1.00;;
66437;SDS011;54537;47.972;11.662;2023-02-03T09:41:50;5.55;;;0.90;;
66437;SDS011;54537;47.972;11.662;2023-02-03T09:44:33;3.45;;;1.20;;
66437;SDS011;54537;47.972;11.662;2023-02-03T09:47:08;3.53;;;1.00;;
66437;SDS011;54537;47.972;11.662;2023-02-03T09:49:38;1.55;;;0.70;;
66437;SDS011;54537;47.972;11.662;2023-02-03T09:52:09;4.05;;;0.77;;
66437;SDS011;54537;47.972;11.662;2023-02-03T09:57:11;1.20;;;0.85;;
66437;SDS011;54537;47.972;11.662;2023-02-03T09:59:39;2.63;;;1.08;;
66437;SDS011;54537;47.972;11.662;2023-02-03T10:02:11;3.38;;;0.70;;
66437;SDS011;54537;47.972;11.662;2023-02-03T10:04:48;2.70;;;0.80;;
66437;SDS011;54537;47.972;11.662;2023-02-03T10:07:20;2.88;;;1.10;;
66437;SDS011;54537;47.972;11.662;2023-02-03T10:09:55;1.90;;;0.93;;
66437;SDS011;54537;47.972;11.662;2023-02-03T10:12:32;2.03;;;0.80;;
66437;SDS011;54537;47.972;11.662;2023-02-03T10:15:22;1.20;;;0.65;;
66437;SDS011;54537;47.972;11.662;2023-02-03T10:17:58;0.88;;;0.80;;
66437;SDS011;54537;47.972;11.662;2023-02-03T10:20:29;1.75;;;0.90;;
66437;SDS011;54537;47.972;11.662;2023-02-03T10:23:03;2.00;;;0.90;;
66437;SDS011;54537;47.972;11.662;2023-02-03T10:25:32;1.88;;;0.65;;
66437;SDS011;54537;47.972;11.662;2023-02-03T10:28:02;2.75;;;0.80;;
66437;SDS011;54537;47.972;11.662;2023-02-03T10:30:31;2.17;;;0.90;;
66437;SDS011;54537;47.972;11.662;2023-02-03T10:33:09;1.10;;;0.70;;
66437;SDS011;54537;47.972;11.662;2023-02-03T10:35:38;1.95;;;1.00;;
66437;SDS011;54537;47.972;11.662;2023-02-03T10:38:12;1.25;;;0.60;;
66437;SDS011;54537;47.972;11.662;2023-02-03T10:40:42;1.85;;;0.75;;
66437;SDS011;54537;47.972;11.662;2023-02-03T10:43:08;0.98;;;0.60;;
66437;SDS011;54537;47.972;11.662;2023-02-03T10:45:52;1.77;;;0.80;;
66437;SDS011;54537;47.972;11.662;2023-02-03T10:48:19;1.27;;;0.57;;
66437;SDS011;54537;47.972;11.662;2023-02-03T10:50:47;1.40;;;0.70;;
66437;SDS011;54537;47.972;11.662;2023-02-03T10:53:25;1.55;;;0.73;;
66437;SDS011;54537;47.972;11.662;2023-02-03T10:56:00;2.30;;;0.60;;
66437;SDS011;54537;47.972;11.662;2023-02-03T10:58:29;0.30;;;0.30;;
66437;SDS011;54537;47.972;11.662;2023-02-03T11:00:57;1.42;;;0.70;;
66437;SDS011;54537;47.972;11.662;2023-02-03T11:03:31;1.48;;;0.65;;
66437;SDS011;54537;47.972;11.662;2023-02-03T11:06:02;1.63;;;0.80;;
66437;SDS011;54537;47.972;11.662;2023-02-03T11:08:32;2.40;;;0.70;;
66437;SDS011;54537;47.972;11.662;2023-02-03T11:11:02;2.25;;;0.68;;
66437;SDS011;54537;47.972;11.662;2023-02-03T11:13:30;0.80;;;0.57;;
66437;SDS011;54537;47.972;11.662;2023-02-03T11:15:58;0.95;;;0.73;;
66437;SDS011;54537;47.972;11.662;2023-02-03T11:18:36;1.30;;;0.70;;
66437;SDS011;54537;47.972;11.662;2023-02-03T11:21:21;2.08;;;1.02;;
66437;SDS011;54537;47.972;11.662;2023-02-03T11:24:00;1.58;;;0.68;;
66437;SDS011;54537;47.972;11.662;2023-02-03T11:26:30;1.00;;;0.60;;
66437;SDS011;54537;47.972;11.662;2023-02-03T11:29:00;2.17;;;1.00;;
66437;SDS011;54537;47.972;11.662;2023-02-03T11:31:27;3.17;;;0.85;;
66437;SDS011;54537;47.972;11.662;2023-02-03T11:33:56;1.02;;;0.82;;
66437;SDS011;54537;47.972;11.662;2023-02-03T11:36:24;2.25;;;0.70;;
66437;SDS011;54537;47.972;11.662;2023-02-03T11:38:53;1.35;;;0.85;;
66437;SDS011;54537;47.972;11.662;2023-02-03T11:41:36;3.40;;;1.00;;
66437;SDS011;54537;47.972;11.662;2023-02-03T11:44:09;2.45;;;1.30;;
66437;SDS011;54537;47.972;11.662;2023-02-03T11:46:36;3.10;;;1.13;;
66437;SDS011;54537;47.972;11.662;2023-02-03T11:49:05;1.60;;;0.93;;
66437;SDS011;54537;47.972;11.662;2023-02-03T11:51:35;1.45;;;0.73;;
66437;SDS011;54537;47.972;11.662;2023-02-03T11:54:13;4.28;;;0.70;;
66437;SDS011;54537;47.972;11.662;2023-02-03T11:56:53;1.85;;;0.73;;
66437;SDS011;54537;47.972;11.662;2023-02-03T11:59:33;2.58;;;1.10;;
66437;SDS011;54537;47.972;11.662;2023-02-03T12:02:29;0.85;;;0.60;;
66437;SDS011;54537;47.972;11.662;2023-02-03T12:05:27;0.98;;;0.70;;
66437;SDS011;54537;47.972;11.662;2023-02-03T12:08:01;2.17;;;0.88;;
66437;SDS011;54537;47.972;11.662;2023-02-03T12:10:38;1.88;;;0.70;;
66437;SDS011;54537;47.972;11.662;2023-02-03T12:13:16;1.60;;;0.90;;
66437;SDS011;54537;47.972;11.662;2023-02-03T12:16:03;2.70;;;0.88;;
66437;SDS011;54537;47.972;11.662;2023-02-03T12:18:39;1.13;;;0.70;;
66437;SDS011;54537;47.972;11.662;2023-02-03T12:21:18;1.88;;;0.70;;
66437;SDS011;54537;47.972;11.662;2023-02-03T12:23:55;1.00;;;0.77;;
66437;SDS011;54537;47.972;11.662;2023-02-03T12:26:28;1.23;;;0.63;;
66437;SDS011;54537;47.972;11.662;2023-02-03T12:29:00;0.57;;;0.52;;
66437;SDS011;54537;47.972;11.662;2023-02-03T12:31:31;1.77;;;0.73;;
66437;SDS011;54537;47.972;11.662;2023-02-03T12:34:03;2.08;;;0.82;;
66437;SDS011;54537;47.972;11.662;2023-02-03T12:36:37;0.75;;;0.52;;
66437;SDS011;54537;47.972;11.662;2023-02-03T12:39:07;2.13;;;0.90;;
66437;SDS011;54537;47.972;11.662;2023-02-03T12:41:41;2.33;;;1.00;;
66437;SDS011;54537;47.972;11.662;2023-02-03T12:44:13;0.60;;;0.60;;
66437;SDS011;54537;47.972;11.662;2023-02-03T12:46:43;1.42;;;0.77;;
66437;SDS011;54537;47.972;11.662;2023-02-03T12:49:12;2.10;;;0.70;;
66437;SDS011;54537;47.972;11.662;2023-02-03T12:51:42;0.98;;;0.70;;
66437;SDS011;54537;47.972;11.662;2023-02-03T12:54:22;1.20;;;0.90;;
66437;SDS011;54537;47.972;11.662;2023-02-03T12:56:56;2.00;;;0.75;;
66437;SDS011;54537;47.972;11.662;2023-02-03T12:59:27;0.73;;;0.60;;
66437;SDS011;54537;47.972;11.662;2023-02-03T13:01:55;1.60;;;0.98;;
66437;SDS011;54537;47.972;11.662;2023-02-03T13:04:26;2.65;;;0.73;;
66437;SDS011;54537;47.972;11.662;2023-02-03T13:06:56;1.13;;;0.70;;
66437;SDS011;54537;47.972;11.662;2023-02-03T13:09:27;2.28;;;0.77;;
66437;SDS011;54537;47.972;11.662;2023-02-03T13:12:00;1.27;;;0.80;;
66437;SDS011;54537;47.972;11.662;2023-02-03T13:14:30;3.83;;;1.52;;
66437;SDS011;54537;47.972;11.662;2023-02-03T13:16:59;1.90;;;0.90;;
66437;SDS011;54537;47.972;11.662;2023-02-03T13:19:29;2.10;;;0.82;;
66437;SDS011;54537;47.972;11.662;2023-02-03T13:22:04;2.35;;;0.80;;
66437;SDS011;54537;47.972;11.662;2023-02-03T13:24:36;10.82;;;1.00;;
66437;SDS011;54537;47.972;11.662;2023-02-03T13:27:16;1.05;;;0.73;;
66437;SDS011;54537;47.972;11.662;2023-02-03T13:29:54;1.45;;;0.70;;
66437;SDS011;54537;47.972;11.662;2023-02-03T13:32:36;1.45;;;0.90;;
66437;SDS011;54537;47.972;11.662;2023-02-03T13:35:26;2.47;;;1.00;;
66437;SDS011;54537;47.972;11.662;2023-02-03T13:41:04;1.17;;;0.73;;
66437;SDS011;54537;47.972;11.662;2023-02-03T13:43:34;1.70;;;1.02;;
66437;SDS011;54537;47.972;11.662;2023-02-03T13:46:02;1.35;;;0.70;;
66437;SDS011;54537;47.972;11.662;2023-02-03T13:48:29;2.58;;;0.60;;
66437;SDS011;54537;47.972;11.662;2023-02-03T13:51:01;1.73;;;0.65;;
66437;SDS011;54537;47.972;11.662;2023-02-03T13:53:32;1.35;;;0.68;;
66437;SDS011;54537;47.972;11.662;2023-02-03T13:56:00;2.40;;;0.80;;
66437;SDS011;54537;47.972;11.662;2023-02-03T13:58:29;1.35;;;0.75;;
66437;SDS011;54537;47.972;11.662;2023-02-03T14:01:02;2.10;;;0.73;;
66437;SDS011;54537;47.972;11.662;2023-02-03T14:03:40;0.88;;;0.63;;
66437;SDS011;54537;47.972;11.662;2023-02-03T14:09:22;1.52;;;0.75;;
66437;SDS011;54537;47.972;11.662;2023-02-03T14:11:49;1.88;;;0.90;;
66437;SDS011;54537;47.972;11.662;2023-02-03T14:20:37;2.15;;;0.80;;
66437;SDS011;54537;47.972;11.662;2023-02-03T14:23:07;1.38;;;0.90;;
66437;SDS011;54537;47.972;11.662;2023-02-03T14:25:38;2.97;;;0.90;;
66437;SDS011;54537;47.972;11.662;2023-02-03T14:28:08;2.38;;;1.00;;
66437;SDS011;54537;47.972;11.662;2023-02-03T14:36:34;2.72;;;1.05;;
66437;SDS011;54537;47.972;11.662;2023-02-03T14:39:04;8.45;;;1.15;;
66437;SDS011;54537;47.972;11.662;2023-02-03T14:41:58;1.50;;;1.02;;
66437;SDS011;54537;47.972;11.662;2023-02-03T14:44:30;2.40;;;0.95;;
66437;SDS011;54537;47.972;11.662;2023-02-03T14:47:07;2.88;;;1.08;;
66437;SDS011;54537;47.972;11.662;2023-02-03T14:49:44;2.95;;;1.10;;
66437;SDS011;54537;47.972;11.662;2023-02-03T14:52:25;2.97;;;1.05;;
66437;SDS011;54537;47.972;11.662;2023-02-03T14:55:10;4.03;;;1.42;;
66437;SDS011;54537;47.972;11.662;2023-02-03T14:57:50;1.92;;;0.80;;
66437;SDS011;54537;47.972;11.662;2023-02-03T15:00:25;3.97;;;1.48;;
66437;SDS011;54537;47.972;11.662;2023-02-03T15:05:57;2.08;;;0.90;;
66437;SDS011;54537;47.972;11.662;2023-02-03T15:08:29;4.25;;;1.23;;
66437;SDS011;54537;47.972;11.662;2023-02-03T15:13:41;2.58;;;0.93;;
66437;SDS011;54537;47.972;11.662;2023-02-03T15:16:11;2.05;;;1.15;;